Time;durP1;ratioP1;P1;durP2;ratioP2;P2;SDS_P1;SDS_P2;PMS_P1;PMS_P2;Temp;Humidity;BMP_temperature;BMP_pressure;BME280_temperature;BME280_humidity;BME280_pressure;Samples;Min_cycle;Max_cycle;Signal;HPM_P1;HPM_P2
2023/04/09 00:01:04;;;;;;;;;;;;;;;4.29;100.00;97217.66;5004375;28;19925;-70
2023/04/09 00:03:30;;;;;;;;;;;;;;;4.25;100.00;97211.25;5001046;28;19925;-70
2023/04/09 00:05:55;;;;;;;;;;;;;;;4.21;100.00;97211.88;5004130;28;20441;-69
2023/04/09 00:08:22;;;;;;;;;;;;;;;4.20;100.00;97214.91;4999452;28;20166;-69
2023/04/09 00:10:48;;;;;;;;;;;;;;;4.20;100.00;97210.28;5004267;28;20317;-69
2023/04/09 00:13:14;;;;;;;;;;;;;;;4.17;100.00;97207.38;4998425;28;19918;-70
2023/04/09 00:15:39;;;;;;;;;;;;;;;4.18;100.00;97200.88;5003516;28;20436;-68
2023/04/09 00:18:05;;;;;;;;;;;;;;;4.17;100.00;97199.25;4999309;28;19944;-70
2023/04/09 00:20:30;;;;;;;;;;;;;;;4.17;100.00;97202.75;5004331;28;19979;-69
2023/04/09 00:22:57;;;;;;;;;;;;;;;4.20;100.00;97204.06;5004273;28;20373;-68
2023/04/09 00:25:22;;;;;;;;;;;;;;;4.17;100.00;97204.69;5002568;28;19925;-70
2023/04/09 00:27:48;;;;;;;;;;;;;;;4.18;100.00;97196.25;5011153;28;19918;-68
2023/04/09 00:30:14;;;;;;;;;;;;;;;4.16;100.00;97195.75;4998087;28;20290;-69
2023/04/09 00:32:40;;;;;;;;;;;;;;;4.16;100.00;97187.63;5003942;28;19917;-70
2023/04/09 00:35:05;;;;;;;;;;;;;;;4.11;100.00;97193.19;4999246;28;19917;-69
2023/04/09 00:37:31;;;;;;;;;;;;;;;4.11;100.00;97193.19;5002133;28;19924;-68
2023/04/09 00:39:56;;;;;;;;;;;;;;;4.21;100.00;97192.09;5002163;28;19917;-68
2023/04/09 00:42:22;;;;;;;;;;;;;;;4.25;100.00;97192.25;5000166;28;20295;-70
2023/04/09 00:44:47;;;;;;;;;;;;;;;4.20;100.00;97193.22;5002350;28;19922;-70
2023/04/09 00:47:13;;;;;;;;;;;;;;;4.19;100.00;97191.59;4999267;28;20407;-69
2023/04/09 00:49:38;;;;;;;;;;;;;;;4.16;100.00;97184.91;5004631;28;20363;-68
2023/04/09 00:52:04;;;;;;;;;;;;;;;4.15;100.00;97179.78;4999259;28;19918;-69
2023/04/09 00:54:29;;;;;;;;;;;;;;;4.17;100.00;97188.41;5006159;28;20016;-70
2023/04/09 00:56:55;;;;;;;;;;;;;;;4.17;100.00;97185.69;5038792;28;19964;-69
2023/04/09 00:59:21;;;;;;;;;;;;;;;4.14;100.00;97180.91;5044848;28;19916;-68
2023/04/09 01:01:46;;;;;;;;;;;;;;;4.14;100.00;97186.31;5047397;28;19909;-70
2023/04/09 01:04:12;;;;;;;;;;;;;;;4.10;100.00;97183.44;5037315;28;19925;-68
2023/04/09 01:06:37;;;;;;;;;;;;;;;4.12;100.00;97183.91;5023074;28;20301;-68
2023/04/09 01:09:09;;;;;;;;;;;;;;;4.16;100.00;97186.81;5024664;28;19917;-69
2023/04/09 01:11:40;;;;;;;;;;;;;;;4.11;100.00;97187.75;5032268;28;19936;-69
2023/04/09 01:14:11;;;;;;;;;;;;;;;4.07;100.00;97181.38;5021779;28;20004;-67
2023/04/09 01:16:41;;;;;;;;;;;;;;;4.24;100.00;97186.06;5024108;28;20400;-68
2023/04/09 01:19:18;;;;;;;;;;;;;;;4.36;100.00;97175.41;5017660;28;19921;-68
2023/04/09 01:21:44;;;;;;;;;;;;;;;4.38;100.00;97175.88;5033504;28;19926;-70
2023/04/09 01:24:28;;;;;;;;;;;;;;;4.42;100.00;97177.97;5032353;28;19929;-68
2023/04/09 01:27:04;;;;;;;;;;;;;;;4.28;100.00;97187.00;5022096;28;19936;-67
2023/04/09 01:29:32;;;;;;;;;;;;;;;4.25;100.00;97170.56;5004501;28;19918;-69
2023/04/09 01:31:59;;;;;;;;;;;;;;;4.22;100.00;97174.72;5002794;28;19917;-67
2023/04/09 01:34:25;;;;;;;;;;;;;;;4.27;100.00;97176.47;4997897;28;20061;-70
2023/04/09 01:36:53;;;;;;;;;;;;;;;4.15;100.00;97177.88;5001606;28;19917;-70
2023/04/09 01:39:18;;;;;;;;;;;;;;;4.22;100.00;97180.16;4998029;28;19964;-69
2023/04/09 01:41:44;;;;;;;;;;;;;;;4.10;100.00;97177.22;5002367;28;19922;-72
2023/04/09 01:44:11;;;;;;;;;;;;;;;4.02;100.00;97174.16;5008426;28;19944;-68
2023/04/09 01:46:38;;;;;;;;;;;;;;;3.97;100.00;97176.22;5023802;28;19956;-69
2023/04/09 01:49:03;;;;;;;;;;;;;;;3.89;100.00;97175.06;5031524;28;19933;-68
2023/04/09 01:51:30;;;;;;;;;;;;;;;3.84;100.00;97169.78;5021946;28;19921;-67
2023/04/09 01:53:55;;;;;;;;;;;;;;;3.77;100.00;97172.91;5028672;28;19917;-69
2023/04/09 01:56:21;;;;;;;;;;;;;;;3.74;100.00;97168.09;5029147;28;20032;-69
2023/04/09 01:58:46;;;;;;;;;;;;;;;3.87;100.00;97179.19;5022429;28;20400;-69
2023/04/09 02:01:13;;;;;;;;;;;;;;;3.85;100.00;97179.47;5017165;28;19921;-68
2023/04/09 02:03:45;;;;;;;;;;;;;;;3.84;100.00;97186.03;5022137;28;19921;-68
2023/04/09 02:06:14;;;;;;;;;;;;;;;3.90;100.00;97178.56;5016185;28;19921;-68
2023/04/09 02:08:43;;;;;;;;;;;;;;;3.71;100.00;97185.00;5021563;28;19925;-69
2023/04/09 02:11:09;;;;;;;;;;;;;;;3.60;100.00;97176.34;5016531;28;19917;-68
2023/04/09 02:13:36;;;;;;;;;;;;;;;3.49;100.00;97180.38;5022437;28;20497;-68
2023/04/09 02:16:02;;;;;;;;;;;;;;;3.44;100.00;97178.63;5021591;28;20271;-68
2023/04/09 02:18:28;;;;;;;;;;;;;;;3.34;100.00;97178.84;5017234;28;19928;-68
2023/04/09 02:20:58;;;;;;;;;;;;;;;3.24;100.00;97174.50;5021224;28;19971;-69
2023/04/09 02:23:24;;;;;;;;;;;;;;;3.21;100.00;97171.59;5016395;28;19922;-68
2023/04/09 02:25:50;;;;;;;;;;;;;;;3.14;100.00;97177.44;5018005;28;19945;-69
2023/04/09 02:28:15;;;;;;;;;;;;;;;3.07;100.00;97182.47;5006257;28;20375;-71
2023/04/09 02:30:41;;;;;;;;;;;;;;;3.06;100.00;97176.28;5002636;28;19933;-69
2023/04/09 02:33:06;;;;;;;;;;;;;;;3.00;100.00;97180.19;4996351;28;19922;-69
2023/04/09 02:35:31;;;;;;;;;;;;;;;3.02;100.00;97174.47;5002443;28;19917;-69
2023/04/09 02:37:57;;;;;;;;;;;;;;;2.98;100.00;97176.19;5004520;28;19917;-69
2023/04/09 02:40:22;;;;;;;;;;;;;;;2.99;100.00;97178.59;5001352;28;19932;-69
2023/04/09 02:42:48;;;;;;;;;;;;;;;3.01;100.00;97181.00;5002280;28;20020;-68
2023/04/09 02:45:13;;;;;;;;;;;;;;;2.88;100.00;97182.63;4996882;28;19919;-70
2023/04/09 02:47:39;;;;;;;;;;;;;;;2.81;100.00;97183.06;5003367;28;19925;-70
2023/04/09 02:50:04;;;;;;;;;;;;;;;2.71;100.00;97183.25;5000047;28;19918;-72
2023/04/09 02:52:30;;;;;;;;;;;;;;;2.70;100.00;97170.84;5005274;28;19917;-69
2023/04/09 02:54:55;;;;;;;;;;;;;;;2.66;100.00;97176.03;5007716;28;19917;-68
2023/04/09 02:57:20;;;;;;;;;;;;;;;2.62;100.00;97171.56;5018800;28;20015;-67
2023/04/09 02:59:46;;;;;;;;;;;;;;;2.58;100.00;97174.06;5024518;28;19921;-68
2023/04/09 03:02:11;;;;;;;;;;;;;;;2.53;100.00;97163.34;5019290;28;19932;-68
2023/04/09 03:04:37;;;;;;;;;;;;;;;2.47;100.00;97161.88;5026042;28;19925;-71
2023/04/09 03:07:03;;;;;;;;;;;;;;;2.59;100.00;97169.47;5029077;28;19920;-70
2023/04/09 03:09:29;;;;;;;;;;;;;;;2.52;100.00;97171.78;5030180;28;19917;-70
2023/04/09 03:11:56;;;;;;;;;;;;;;;2.53;100.00;97160.66;5028649;28;19972;-69
2023/04/09 03:14:24;;;;;;;;;;;;;;;2.53;100.00;97159.88;5021005;28;21825;-68
2023/04/09 03:16:49;;;;;;;;;;;;;;;2.51;100.00;97167.47;5024417;28;20019;-68
2023/04/09 03:19:15;;;;;;;;;;;;;;;2.47;100.00;97161.88;5002351;28;19968;-69
2023/04/09 03:21:40;;;;;;;;;;;;;;;2.42;100.00;97156.56;5024674;28;19924;-67
2023/04/09 03:24:06;;;;;;;;;;;;;;;2.34;100.00;97162.69;5020103;28;20397;-68
2023/04/09 03:26:35;;;;;;;;;;;;;;;2.33;100.00;97159.19;5024277;28;20432;-69
2023/04/09 03:29:04;;;;;;;;;;;;;;;2.37;100.00;97160.16;5025969;28;19917;-71
2023/04/09 03:31:30;;;;;;;;;;;;;;;2.23;100.00;97162.91;5006679;28;20362;-70
2023/04/09 03:33:56;;;;;;;;;;;;;;;2.20;100.00;97162.69;5012989;28;19944;-70
2023/04/09 03:36:21;;;;;;;;;;;;;;;2.09;100.00;97149.38;5044302;28;20309;-70
2023/04/09 03:38:46;;;;;;;;;;;;;;;2.00;100.00;97162.00;5047746;28;19952;-71
2023/04/09 03:41:12;;;;;;;;;;;;;;;1.89;100.00;97155.97;5039747;28;19917;-69
2023/04/09 03:43:37;;;;;;;;;;;;;;;1.83;100.00;97159.06;5036359;28;19979;-68
2023/04/09 03:46:10;;;;;;;;;;;;;;;1.78;100.00;97159.16;5022039;28;19943;-69
2023/04/09 03:48:35;;;;;;;;;;;;;;;1.75;100.00;97165.16;5024965;28;20035;-68
2023/04/09 03:51:00;;;;;;;;;;;;;;;1.80;100.00;97168.56;5023494;28;20362;-71
2023/04/09 03:53:26;;;;;;;;;;;;;;;1.80;100.00;97160.47;5010682;28;19922;-69
2023/04/09 03:55:51;;;;;;;;;;;;;;;1.79;100.00;97161.56;5014026;28;20306;-70
2023/04/09 03:58:16;;;;;;;;;;;;;;;1.75;100.00;97160.56;5011099;28;19963;-70
2023/04/09 04:00:42;;;;;;;;;;;;;;;1.92;100.00;97155.38;5019119;28;19939;-70
2023/04/09 04:03:07;;;;;;;;;;;;;;;2.10;100.00;97160.97;4999874;28;19921;-68
2023/04/09 04:05:32;;;;;;;;;;;;;;;2.14;100.00;97156.56;5022542;28;19947;-68
2023/04/09 04:07:58;;;;;;;;;;;;;;;2.14;100.00;97161.19;5023431;28;20352;-68
2023/04/09 04:10:23;;;;;;;;;;;;;;;2.13;100.00;97159.59;5018960;28;19921;-70
2023/04/09 04:12:49;;;;;;;;;;;;;;;2.15;100.00;97169.00;5021851;28;19925;-69
2023/04/09 04:15:15;;;;;;;;;;;;;;;2.10;100.00;97171.78;5018803;28;19924;-70
2023/04/09 04:17:40;;;;;;;;;;;;;;;2.05;100.00;97170.00;5030756;28;19959;-70
2023/04/09 04:20:07;;;;;;;;;;;;;;;2.04;100.00;97168.38;5025322;28;19923;-70
2023/04/09 04:22:33;;;;;;;;;;;;;;;2.06;100.00;97166.19;5023486;28;19917;-71
2023/04/09 04:24:59;;;;;;;;;;;;;;;2.01;100.00;97162.78;5023085;28;19917;-71
2023/04/09 04:27:24;;;;;;;;;;;;;;;1.98;100.00;97166.06;5018208;28;19971;-69
2023/04/09 04:29:49;;;;;;;;;;;;;;;1.95;100.00;97159.38;5023509;28;19949;-70
2023/04/09 04:32:15;;;;;;;;;;;;;;;1.90;100.00;97168.38;5018906;28;19917;-71
2023/04/09 04:34:40;;;;;;;;;;;;;;;1.91;100.00;97171.91;5023229;28;19924;-69
2023/04/09 04:37:05;;;;;;;;;;;;;;;1.83;100.00;97167.16;5019136;28;19929;-70
2023/04/09 04:39:31;;;;;;;;;;;;;;;1.90;100.00;97157.56;5023312;28;20392;-69
2023/04/09 04:41:56;;;;;;;;;;;;;;;1.88;100.00;97169.78;5023190;28;19924;-70
2023/04/09 04:44:21;;;;;;;;;;;;;;;1.94;100.00;97170.47;5018127;28;19929;-70
2023/04/09 04:46:47;;;;;;;;;;;;;;;1.97;100.00;97175.31;5023620;28;19917;-68
2023/04/09 04:49:12;;;;;;;;;;;;;;;1.99;100.00;97176.59;5019258;28;20055;-69
2023/04/09 04:51:37;;;;;;;;;;;;;;;2.05;100.00;97171.88;5022301;28;19918;-69
2023/04/09 04:54:03;;;;;;;;;;;;;;;1.84;100.00;97177.69;5019873;28;19977;-73
2023/04/09 04:56:28;;;;;;;;;;;;;;;1.76;100.00;97175.66;5020783;28;19917;-68
2023/04/09 04:58:53;;;;;;;;;;;;;;;1.76;100.00;97178.34;5015448;28;19971;-69
2023/04/09 05:01:19;;;;;;;;;;;;;;;1.84;100.00;97177.69;5018667;28;20394;-69
2023/04/09 05:03:44;;;;;;;;;;;;;;;1.84;100.00;97183.09;5023640;28;19922;-70
2023/04/09 05:06:09;;;;;;;;;;;;;;;1.89;100.00;97180.28;5018541;28;19917;-69
2023/04/09 05:08:35;;;;;;;;;;;;;;;1.88;100.00;97183.28;5015449;28;20726;-70
2023/04/09 05:11:06;;;;;;;;;;;;;;;1.91;100.00;97180.78;5004458;28;19976;-70
2023/04/09 05:13:32;;;;;;;;;;;;;;;1.96;100.00;97179.88;5003749;28;20414;-68
2023/04/09 05:15:57;;;;;;;;;;;;;;;2.03;100.00;97187.59;5003049;28;20020;-69
2023/04/09 05:18:22;;;;;;;;;;;;;;;2.21;100.00;97181.28;4998780;28;20384;-70
2023/04/09 05:20:50;;;;;;;;;;;;;;;2.47;100.00;97180.81;5003216;28;20531;-68
2023/04/09 05:23:15;;;;;;;;;;;;;;;2.83;100.00;97185.47;4998332;28;19961;-69
2023/04/09 05:25:40;;;;;;;;;;;;;;;2.88;100.00;97185.31;5003211;28;19922;-69
2023/04/09 05:28:09;;;;;;;;;;;;;;;3.13;100.00;97194.78;4999727;28;19952;-69
2023/04/09 05:30:35;;;;;;;;;;;;;;;3.29;100.00;97189.00;5002734;28;20012;-71
2023/04/09 05:33:00;;;;;;;;;;;;;;;3.66;100.00;97195.97;5002993;28;20008;-71
2023/04/09 05:35:26;;;;;;;;;;;;;;;4.00;100.00;97203.50;4999096;28;19924;-70
2023/04/09 05:37:51;;;;;;;;;;;;;;;4.75;100.00;97205.50;5010970;28;19931;-69
2023/04/09 05:40:16;;;;;;;;;;;;;;;4.89;100.00;97202.66;5013543;28;19921;-70
2023/04/09 05:42:41;;;;;;;;;;;;;;;5.13;100.00;97199.47;5007421;28;19932;-71
2023/04/09 05:45:07;;;;;;;;;;;;;;;5.46;100.00;97202.53;4998837;28;19925;-69
2023/04/09 05:47:32;;;;;;;;;;;;;;;7.02;100.00;97211.28;5019764;28;19918;-71
2023/04/09 05:49:58;;;;;;;;;;;;;;;7.39;96.01;97203.31;5021673;28;20350;-70
2023/04/09 05:52:23;;;;;;;;;;;;;;;7.50;90.60;97211.88;5017403;28;20007;-70
2023/04/09 05:54:48;;;;;;;;;;;;;;;9.51;83.49;97206.69;5022074;28;19918;-69
2023/04/09 05:57:14;;;;;;;;;;;;;;;8.67;82.24;97210.00;5010527;28;20343;-69
2023/04/09 05:59:39;;;;;;;;;;;;;;;7.89;88.40;97208.97;5013780;28;19944;-69
2023/04/09 06:02:05;;;;;;;;;;;;;;;8.82;88.05;97216.72;5017402;28;19917;-69
2023/04/09 06:04:30;;;;;;;;;;;;;;;9.61;82.34;97214.38;5021860;28;19925;-70
2023/04/09 06:06:58;;;;;;;;;;;;;;;8.77;82.38;97217.75;5022097;28;19921;-71
2023/04/09 06:09:25;;;;;;;;;;;;;;;8.63;81.11;97209.09;5025816;28;20177;-69
2023/04/09 06:11:50;;;;;;;;;;;;;;;7.78;89.93;97206.66;5035430;28;19963;-70
2023/04/09 06:14:17;;;;;;;;;;;;;;;7.17;94.40;97211.81;5042920;28;19909;-71
2023/04/09 06:16:42;;;;;;;;;;;;;;;6.11;98.34;97211.53;5047272;28;19921;-76
2023/04/09 06:19:07;;;;;;;;;;;;;;;6.27;100.00;97202.88;5022315;28;19936;-71
2023/04/09 06:21:33;;;;;;;;;;;;;;;5.67;100.00;97204.56;5040753;28;19921;-71
2023/04/09 06:23:58;;;;;;;;;;;;;;;5.30;100.00;97209.56;5037621;28;19925;-69
2023/04/09 06:26:23;;;;;;;;;;;;;;;5.93;100.00;97212.69;5024758;28;19917;-71
2023/04/09 06:28:49;;;;;;;;;;;;;;;6.68;99.80;97212.25;5027020;28;20417;-69
2023/04/09 06:31:14;;;;;;;;;;;;;;;6.56;100.00;97214.91;5021969;28;19917;-68
2023/04/09 06:33:39;;;;;;;;;;;;;;;6.65;97.36;97208.28;5026217;28;19940;-69
2023/04/09 06:36:05;;;;;;;;;;;;;;;5.75;100.00;97204.56;5022024;28;20289;-70
2023/04/09 06:38:30;;;;;;;;;;;;;;;6.95;100.00;97200.13;5026211;28;19917;-68
2023/04/09 06:40:56;;;;;;;;;;;;;;;6.30;99.46;97203.00;5025552;28;19921;-70
2023/04/09 06:43:21;;;;;;;;;;;;;;;5.94;100.00;97197.97;5021338;28;20676;-69
2023/04/09 06:45:47;;;;;;;;;;;;;;;6.10;100.00;97200.97;5026107;28;19917;-70
2023/04/09 06:48:12;;;;;;;;;;;;;;;6.56;100.00;97202.09;5011206;28;19960;-71
2023/04/09 06:50:37;;;;;;;;;;;;;;;6.51;100.00;97197.63;5007706;28;19959;-70
2023/04/09 06:53:05;;;;;;;;;;;;;;;6.88;99.64;97205.28;5025829;28;19925;-71
2023/04/09 06:55:30;;;;;;;;;;;;;;;6.11;100.00;97210.75;5028256;28;19928;-70
2023/04/09 06:57:56;;;;;;;;;;;;;;;7.22;100.00;97206.16;5018674;28;19917;-70
2023/04/09 07:00:21;;;;;;;;;;;;;;;8.38;89.34;97211.78;5004384;28;20630;-70
2023/04/09 07:02:47;;;;;;;;;;;;;;;8.12;90.61;97209.34;4988594;28;19924;-71
2023/04/09 07:05:12;;;;;;;;;;;;;;;8.64;86.08;97211.47;5008408;28;19924;-70
2023/04/09 07:07:38;;;;;;;;;;;;;;;8.18;87.00;97216.97;5026941;28;19924;-70
2023/04/09 07:10:03;;;;;;;;;;;;;;;8.62;83.87;97208.28;5023918;28;19963;-70
2023/04/09 07:12:30;;;;;;;;;;;;;;;8.75;83.88;97218.09;5025022;28;19917;-69
2023/04/09 07:14:58;;;;;;;;;;;;;;;8.18;87.58;97208.00;5025869;28;19917;-70
2023/04/09 07:17:24;;;;;;;;;;;;;;;8.94;83.43;97211.25;5020914;28;20342;-71
2023/04/09 07:19:50;;;;;;;;;;;;;;;8.99;88.35;97206.34;5026025;28;19917;-71
2023/04/09 07:22:15;;;;;;;;;;;;;;;8.39;85.76;97206.00;5021628;28;19917;-71
2023/04/09 07:24:41;;;;;;;;;;;;;;;9.33;80.82;97206.16;5026063;28;19962;-70
2023/04/09 07:27:06;;;;;;;;;;;;;;;8.48;82.08;97205.09;5021759;28;20298;-70
2023/04/09 07:29:31;;;;;;;;;;;;;;;8.35;83.22;97207.00;5025053;28;19949;-72
2023/04/09 07:31:57;;;;;;;;;;;;;;;8.73;81.81;97205.91;5025109;28;19979;-69
2023/04/09 07:34:22;;;;;;;;;;;;;;;7.98;84.95;97205.00;5019245;28;19932;-70
2023/04/09 07:36:47;;;;;;;;;;;;;;;8.95;80.81;97202.72;5024637;28;19924;-71
2023/04/09 07:39:13;;;;;;;;;;;;;;;8.87;80.19;97195.41;5001597;28;19922;-69
2023/04/09 07:41:38;;;;;;;;;;;;;;;8.89;85.88;97211.47;5022387;28;19917;-70
2023/04/09 07:44:05;;;;;;;;;;;;;;;7.46;89.72;97209.00;5020550;28;19944;-70
2023/04/09 07:46:30;;;;;;;;;;;;;;;8.44;88.27;97204.97;5022214;28;19918;-70
2023/04/09 07:48:55;;;;;;;;;;;;;;;9.72;79.99;97201.81;5024521;28;19924;-70
2023/04/09 07:51:21;;;;;;;;;;;;;;;10.34;75.31;97209.72;5001941;28;21633;-68
2023/04/09 07:53:46;;;;;;;;;;;;;;;8.90;81.18;97213.06;5023967;28;19924;-70
2023/04/09 07:56:12;;;;;;;;;;;;;;;8.06;88.06;97207.97;5019691;28;20374;-70
2023/04/09 07:58:37;;;;;;;;;;;;;;;8.00;87.94;97208.19;5015736;28;19917;-68
2023/04/09 08:01:03;;;;;;;;;;;;;;;9.15;86.79;97209.16;5008252;28;19921;-71
2023/04/09 08:03:28;;;;;;;;;;;;;;;9.43;82.54;97213.88;5001964;28;19929;-69
2023/04/09 08:05:53;;;;;;;;;;;;;;;10.76;76.83;97211.13;5005698;28;19932;-69
2023/04/09 08:08:19;;;;;;;;;;;;;;;10.15;75.35;97210.38;5012699;28;19924;-69
2023/04/09 08:10:44;;;;;;;;;;;;;;;11.29;71.94;97215.09;5020415;28;19917;-71
2023/04/09 08:13:10;;;;;;;;;;;;;;;11.85;63.43;97222.09;5022843;28;20014;-69
2023/04/09 08:15:35;;;;;;;;;;;;;;;10.13;74.37;97218.13;5009795;28;20042;-72
2023/04/09 08:18:02;;;;;;;;;;;;;;;8.86;80.23;97221.16;5025141;28;19921;-71
2023/04/09 08:20:29;;;;;;;;;;;;;;;9.07;75.83;97233.88;5005889;28;20370;-69
2023/04/09 08:22:54;;;;;;;;;;;;;;;9.66;78.96;97233.28;5026295;28;19985;-69
2023/04/09 08:25:19;;;;;;;;;;;;;;;12.06;68.77;97218.22;5018579;28;20031;-71
2023/04/09 08:27:45;;;;;;;;;;;;;;;12.96;62.44;97227.97;5005031;28;19943;-69
2023/04/09 08:30:10;;;;;;;;;;;;;;;11.48;62.61;97230.75;5023541;28;19975;-69
2023/04/09 08:32:36;;;;;;;;;;;;;;;10.20;75.49;97231.22;5034439;28;19917;-70
2023/04/09 08:35:01;;;;;;;;;;;;;;;9.32;77.24;97231.91;5035483;28;19928;-71
2023/04/09 08:37:27;;;;;;;;;;;;;;;9.89;75.91;97230.00;5020941;28;19917;-69
2023/04/09 08:39:52;;;;;;;;;;;;;;;9.28;78.46;97233.75;5026126;28;19917;-70
2023/04/09 08:42:18;;;;;;;;;;;;;;;10.53;72.82;97236.38;5019492;28;20024;-70
2023/04/09 08:44:44;;;;;;;;;;;;;;;9.48;80.66;97231.97;5005230;28;19975;-68
2023/04/09 08:47:10;;;;;;;;;;;;;;;10.49;72.67;97241.00;5018257;28;19917;-69
2023/04/09 08:49:37;;;;;;;;;;;;;;;9.27;77.61;97241.13;5023625;28;19940;-68
2023/04/09 08:52:03;;;;;;;;;;;;;;;9.31;78.22;97239.31;5020233;28;19924;-70
2023/04/09 08:54:28;;;;;;;;;;;;;;;7.98;88.56;97243.19;5027404;28;20293;-70
2023/04/09 08:56:55;;;;;;;;;;;;;;;7.82;89.31;97242.22;5023391;28;19917;-69
2023/04/09 08:59:20;;;;;;;;;;;;;;;7.29;90.57;97233.66;5031724;28;19917;-72
2023/04/09 09:01:48;;;;;;;;;;;;;;;7.97;93.50;97238.84;5043367;28;19917;-70
2023/04/09 09:04:13;;;;;;;;;;;;;;;7.77;88.38;97242.44;5035358;28;19932;-70
2023/04/09 09:06:39;;;;;;;;;;;;;;;7.13;93.46;97238.94;5031483;28;19917;-68
2023/04/09 09:09:11;;;;;;;;;;;;;;;7.46;93.84;97243.66;5003561;28;19917;-69
2023/04/09 09:11:41;;;;;;;;;;;;;;;8.16;92.56;97237.56;5023739;28;19928;-68
2023/04/09 09:14:07;;;;;;;;;;;;;;;8.14;90.74;97239.81;5021641;28;20404;-69
2023/04/09 09:16:42;;;;;;;;;;;;;;;8.56;90.19;97239.69;5028325;28;19971;-68
2023/04/09 09:19:08;;;;;;;;;;;;;;;8.89;87.49;97239.56;5016968;28;20289;-69
2023/04/09 09:21:35;;;;;;;;;;;;;;;8.55;87.56;97235.38;5005561;28;19921;-68
2023/04/09 09:24:00;;;;;;;;;;;;;;;8.93;82.95;97226.84;5023346;28;20099;-66
2023/04/09 09:26:27;;;;;;;;;;;;;;;8.32;85.75;97219.41;5018492;28;19925;-70
2023/04/09 09:28:53;;;;;;;;;;;;;;;9.47;79.90;97233.94;5022466;28;19956;-69
2023/04/09 09:31:20;;;;;;;;;;;;;;;8.82;81.08;97235.84;5017190;28;20459;-68
2023/04/09 09:33:46;;;;;;;;;;;;;;;10.01;76.37;97234.63;5022269;28;19963;-67
2023/04/09 09:36:11;;;;;;;;;;;;;;;9.77;76.69;97219.91;5018569;28;20006;-67
2023/04/09 09:38:51;;;;;;;;;;;;;;;9.92;75.53;97221.09;5020859;28;20034;-68
2023/04/09 09:41:19;;;;;;;;;;;;;;;9.73;77.19;97229.97;5019432;28;19924;-68
2023/04/09 09:43:45;;;;;;;;;;;;;;;10.33;71.90;97221.81;5020413;28;19921;-67
2023/04/09 09:46:11;;;;;;;;;;;;;;;10.78;73.92;97222.53;4997505;28;20067;-67
2023/04/09 09:48:37;;;;;;;;;;;;;;;9.80;70.71;97216.47;5002065;28;20004;-67
2023/04/09 09:51:07;;;;;;;;;;;;;;;9.74;69.75;97223.31;5001293;28;19921;-70
2023/04/09 09:53:42;;;;;;;;;;;;;;;10.27;73.88;97226.72;5005194;28;19929;-69
2023/04/09 09:56:13;;;;;;;;;;;;;;;10.74;68.93;97224.38;5011537;28;19918;-68
2023/04/09 09:58:44;;;;;;;;;;;;;;;10.85;73.02;97228.94;5021867;28;19917;-68
2023/04/09 10:01:11;;;;;;;;;;;;;;;11.09;66.26;97222.47;5015909;28;19917;-69
2023/04/09 10:03:38;;;;;;;;;;;;;;;8.96;76.07;97230.81;5014769;28;19922;-69
2023/04/09 10:06:04;;;;;;;;;;;;;;;9.77;74.46;97225.38;5011875;28;19917;-68
2023/04/09 10:08:32;;;;;;;;;;;;;;;9.51;74.81;97228.56;5025342;28;19917;-68
2023/04/09 10:10:58;;;;;;;;;;;;;;;8.70;77.19;97228.44;4980128;28;20410;-68
2023/04/09 10:13:25;;;;;;;;;;;;;;;8.84;78.11;97228.09;5003061;28;19926;-68
2023/04/09 10:15:52;;;;;;;;;;;;;;;8.92;79.79;97222.50;5004631;28;20025;-68
2023/04/09 10:18:17;;;;;;;;;;;;;;;9.52;75.18;97233.66;5002174;28;19921;-68
2023/04/09 10:20:48;;;;;;;;;;;;;;;9.23;76.14;97223.84;5005185;28;19971;-68
2023/04/09 10:23:18;;;;;;;;;;;;;;;9.61;72.96;97227.28;5001773;28;20405;-67
2023/04/09 10:25:43;;;;;;;;;;;;;;;9.62;71.13;97220.66;5006888;28;19925;-69
2023/04/09 10:28:16;;;;;;;;;;;;;;;10.44;71.79;97213.88;5018242;28;19917;-68
2023/04/09 10:30:42;;;;;;;;;;;;;;;10.70;67.94;97208.66;5018160;28;19924;-68
2023/04/09 10:33:15;;;;;;;;;;;;;;;9.70;69.23;97198.63;5000576;28;19921;-69
2023/04/09 10:35:41;;;;;;;;;;;;;;;10.57;69.49;97206.34;5019686;28;20413;-69
2023/04/09 10:38:07;;;;;;;;;;;;;;;12.31;64.71;97212.38;5002245;28;19922;-67
2023/04/09 10:40:32;;;;;;;;;;;;;;;12.62;60.49;97211.34;5008880;28;19960;-70
2023/04/09 10:42:58;;;;;;;;;;;;;;;10.74;63.79;97203.25;5009473;28;19925;-70
2023/04/09 10:45:25;;;;;;;;;;;;;;;10.13;67.86;97207.97;5021763;28;20304;-69
2023/04/09 10:47:50;;;;;;;;;;;;;;;10.16;68.61;97200.22;5024642;28;20016;-69
2023/04/09 10:50:22;;;;;;;;;;;;;;;10.06;66.30;97205.06;5020024;28;20344;-70
2023/04/09 10:52:51;;;;;;;;;;;;;;;12.19;63.13;97203.16;5005961;28;20267;-68
2023/04/09 10:55:35;;;;;;;;;;;;;;;12.06;60.59;97201.72;5001876;28;19922;-70
2023/04/09 10:58:04;;;;;;;;;;;;;;;14.03;51.26;97206.63;5005687;28;19926;-69
2023/04/09 11:00:30;;;;;;;;;;;;;;;14.45;53.20;97205.44;5014702;28;19971;-68
2023/04/09 11:03:01;;;;;;;;;;;;;;;11.47;57.99;97199.00;5006543;28;19921;-70
2023/04/09 11:05:26;;;;;;;;;;;;;;;11.79;61.22;97203.53;4999903;28;19918;-69
2023/04/09 11:07:55;;;;;;;;;;;;;;;11.32;60.15;97194.38;5006147;28;19918;-67
2023/04/09 11:10:21;;;;;;;;;;;;;;;12.46;59.63;97197.75;5020485;28;19924;-68
2023/04/09 11:12:49;;;;;;;;;;;;;;;12.31;53.68;97193.94;5025541;28;20281;-69
2023/04/09 11:15:18;;;;;;;;;;;;;;;11.17;58.92;97190.53;5021099;28;19921;-68
2023/04/09 11:17:45;;;;;;;;;;;;;;;11.22;58.35;97187.50;5026942;28;20008;-68
2023/04/09 11:20:11;;;;;;;;;;;;;;;10.88;59.21;97191.84;5021183;28;19917;-69
2023/04/09 11:22:37;;;;;;;;;;;;;;;11.05;56.83;97182.41;5025272;28;20386;-68
2023/04/09 11:25:02;;;;;;;;;;;;;;;10.43;56.16;97177.47;5025277;28;19944;-69
2023/04/09 11:27:28;;;;;;;;;;;;;;;10.81;55.39;97183.47;5023854;28;19917;-67
2023/04/09 11:29:56;;;;;;;;;;;;;;;11.86;53.78;97189.97;5025531;28;19917;-68
2023/04/09 11:32:21;;;;;;;;;;;;;;;11.42;54.24;97182.84;5020624;28;19925;-69
2023/04/09 11:34:47;;;;;;;;;;;;;;;12.99;51.05;97188.75;5025357;28;19924;-67
2023/04/09 11:37:15;;;;;;;;;;;;;;;13.30;47.11;97198.59;5020930;28;19921;-67
2023/04/09 11:39:44;;;;;;;;;;;;;;;13.87;48.49;97189.53;5026227;28;19917;-68
2023/04/09 11:42:13;;;;;;;;;;;;;;;12.84;47.51;97190.50;5028268;28;19917;-68
2023/04/09 11:44:38;;;;;;;;;;;;;;;11.80;47.96;97181.22;5032594;28;19929;-68
2023/04/09 11:47:04;;;;;;;;;;;;;;;11.40;49.05;97181.63;5014150;28;19918;-71
2023/04/09 11:49:30;;;;;;;;;;;;;;;11.89;48.72;97186.50;5025778;28;19921;-69
2023/04/09 11:51:57;;;;;;;;;;;;;;;10.94;50.07;97181.41;5038638;28;19904;-69
2023/04/09 11:54:22;;;;;;;;;;;;;;;11.22;50.11;97187.50;5041732;28;20148;-69
2023/04/09 11:56:54;;;;;;;;;;;;;;;11.54;48.61;97184.66;5044829;28;19917;-69
2023/04/09 11:59:19;;;;;;;;;;;;;;;11.61;46.48;97183.97;5026037;28;19918;-71
2023/04/09 12:01:48;;;;;;;;;;;;;;;12.96;44.53;97187.53;5024125;28;19917;-69
2023/04/09 12:04:18;;;;;;;;;;;;;;;12.91;45.42;97187.84;5018488;28;19928;-68
2023/04/09 12:06:43;;;;;;;;;;;;;;;12.33;43.23;97182.59;5023657;28;19921;-68
2023/04/09 12:09:12;;;;;;;;;;;;;;;11.88;45.05;97175.88;5018926;28;20032;-71
2023/04/09 12:11:37;;;;;;;;;;;;;;;12.38;44.40;97188.56;5023717;28;19917;-69
2023/04/09 12:14:06;;;;;;;;;;;;;;;11.53;46.53;97177.56;5022460;28;19917;-70
2023/04/09 12:16:34;;;;;;;;;;;;;;;11.15;47.08;97178.34;5023589;28;19961;-69
2023/04/09 12:19:04;;;;;;;;;;;;;;;10.78;47.53;97178.69;5022205;28;19921;-69
2023/04/09 12:21:48;;;;;;;;;;;;;;;10.92;49.05;97176.28;5021894;28;19918;-69
2023/04/09 12:24:17;;;;;;;;;;;;;;;10.49;47.93;97175.25;5019721;28;20019;-69
2023/04/09 12:26:44;;;;;;;;;;;;;;;10.87;47.78;97179.28;5023653;28;19921;-70
2023/04/09 12:29:09;;;;;;;;;;;;;;;10.99;47.84;97175.63;5020012;28;20007;-68
2023/04/09 12:31:35;;;;;;;;;;;;;;;11.37;47.17;97169.41;5020772;28;20012;-68
2023/04/09 12:34:00;;;;;;;;;;;;;;;10.99;45.86;97178.38;5025374;28;19968;-70
2023/04/09 12:36:25;;;;;;;;;;;;;;;10.83;46.92;97181.16;5018813;28;19917;-69
2023/04/09 12:38:50;;;;;;;;;;;;;;;11.02;48.82;97166.69;5025329;28;19924;-69
2023/04/09 12:41:16;;;;;;;;;;;;;;;10.90;46.97;97175.84;5020323;28;19924;-69
2023/04/09 12:43:44;;;;;;;;;;;;;;;11.08;46.65;97176.22;5006680;28;20412;-68
2023/04/09 12:46:10;;;;;;;;;;;;;;;11.08;47.58;97177.03;5018642;28;19918;-70